sensor_id;sensor_type;location;lat;lon;timestamp;P1;durP1;ratioP1;P2;durP2;ratioP2
9108;SDS011;4590;51.462;6.692;2023-03-14T01:35:30;5.90;;;0.93;;
9108;SDS011;4590;51.462;6.692;2023-03-14T01:37:55;5.27;;;1.17;;
9108;SDS011;4590;51.462;6.692;2023-03-14T01:40:26;2.23;;;0.70;;
9108;SDS011;4590;51.462;6.692;2023-03-14T03:41:56;7.15;;;1.10;;
9108;SDS011;4590;51.462;6.692;2023-03-14T03:44:22;4.80;;;1.10;;
9108;SDS011;4590;51.462;6.692;2023-03-14T05:27:27;2.65;;;0.70;;
9108;SDS011;4590;51.462;6.692;2023-03-14T07:05:12;0.98;;;0.40;;
9108;SDS011;4590;51.462;6.692;2023-03-14T09:40:53;1.10;;;0.80;;
9108;SDS011;4590;51.462;6.692;2023-03-14T09:45:46;1.07;;;0.70;;
9108;SDS011;4590;51.462;6.692;2023-03-14T09:48:17;1.30;;;0.80;;
9108;SDS011;4590;51.462;6.692;2023-03-14T09:50:47;1.90;;;0.90;;
9108;SDS011;4590;51.462;6.692;2023-03-14T09:53:18;1.27;;;0.77;;
9108;SDS011;4590;51.462;6.692;2023-03-14T09:55:49;1.73;;;1.10;;
9108;SDS011;4590;51.462;6.692;2023-03-14T09:58:22;1.98;;;0.98;;
9108;SDS011;4590;51.462;6.692;2023-03-14T10:00:52;1.40;;;0.90;;
9108;SDS011;4590;51.462;6.692;2023-03-14T10:03:33;1.30;;;0.93;;
9108;SDS011;4590;51.462;6.692;2023-03-14T10:06:00;2.08;;;1.02;;
9108;SDS011;4590;51.462;6.692;2023-03-14T10:08:26;2.08;;;1.00;;
9108;SDS011;4590;51.462;6.692;2023-03-14T10:10:51;1.47;;;0.90;;
9108;SDS011;4590;51.462;6.692;2023-03-14T10:13:25;1.10;;;0.70;;
9108;SDS011;4590;51.462;6.692;2023-03-14T10:15:53;1.65;;;0.80;;
9108;SDS011;4590;51.462;6.692;2023-03-14T10:18:31;1.55;;;0.85;;
9108;SDS011;4590;51.462;6.692;2023-03-14T10:21:04;2.85;;;1.13;;
9108;SDS011;4590;51.462;6.692;2023-03-14T10:23:41;2.30;;;0.93;;
9108;SDS011;4590;51.462;6.692;2023-03-14T10:26:08;2.08;;;0.90;;
9108;SDS011;4590;51.462;6.692;2023-03-14T10:28:45;1.85;;;0.90;;
9108;SDS011;4590;51.462;6.692;2023-03-14T10:31:13;1.38;;;0.70;;
9108;SDS011;4590;51.462;6.692;2023-03-14T10:33:39;1.13;;;0.60;;
9108;SDS011;4590;51.462;6.692;2023-03-14T10:36:06;1.87;;;0.77;;
9108;SDS011;4590;51.462;6.692;2023-03-14T10:38:41;3.47;;;0.63;;
9108;SDS011;4590;51.462;6.692;2023-03-14T10:41:17;1.73;;;0.60;;
9108;SDS011;4590;51.462;6.692;2023-03-14T10:43:56;1.02;;;0.50;;
9108;SDS011;4590;51.462;6.692;2023-03-14T10:46:30;2.13;;;0.70;;
9108;SDS011;4590;51.462;6.692;2023-03-14T10:48:57;3.38;;;0.93;;
9108;SDS011;4590;51.462;6.692;2023-03-14T10:51:26;2.20;;;0.50;;
9108;SDS011;4590;51.462;6.692;2023-03-14T10:54:00;1.92;;;0.40;;
9108;SDS011;4590;51.462;6.692;2023-03-14T10:56:38;1.42;;;0.40;;
9108;SDS011;4590;51.462;6.692;2023-03-14T10:59:04;1.43;;;0.50;;
9108;SDS011;4590;51.462;6.692;2023-03-14T11:07:08;4.40;;;0.85;;
9108;SDS011;4590;51.462;6.692;2023-03-14T11:09:42;2.58;;;0.70;;
9108;SDS011;4590;51.462;6.692;2023-03-14T11:14:59;1.73;;;0.50;;
9108;SDS011;4590;51.462;6.692;2023-03-14T11:17:34;3.90;;;0.65;;
9108;SDS011;4590;51.462;6.692;2023-03-14T11:22:55;1.33;;;0.60;;
9108;SDS011;4590;51.462;6.692;2023-03-14T11:25:33;3.35;;;0.70;;
9108;SDS011;4590;51.462;6.692;2023-03-14T11:36:24;1.88;;;0.50;;
9108;SDS011;4590;51.462;6.692;2023-03-14T11:38:58;0.95;;;0.52;;
9108;SDS011;4590;51.462;6.692;2023-03-14T11:41:32;1.20;;;0.50;;
9108;SDS011;4590;51.462;6.692;2023-03-14T11:44:02;3.35;;;0.70;;
9108;SDS011;4590;51.462;6.692;2023-03-14T11:46:37;2.35;;;0.60;;
9108;SDS011;4590;51.462;6.692;2023-03-14T11:49:27;2.90;;;1.15;;
9108;SDS011;4590;51.462;6.692;2023-03-14T11:52:05;2.00;;;0.90;;
9108;SDS011;4590;51.462;6.692;2023-03-14T11:54:58;3.45;;;0.73;;
9108;SDS011;4590;51.462;6.692;2023-03-14T11:57:26;1.88;;;0.70;;
9108;SDS011;4590;51.462;6.692;2023-03-14T12:00:05;1.70;;;0.57;;
9108;SDS011;4590;51.462;6.692;2023-03-14T12:10:37;4.00;;;0.75;;
9108;SDS011;4590;51.462;6.692;2023-03-14T12:13:04;4.70;;;1.25;;
9108;SDS011;4590;51.462;6.692;2023-03-14T12:15:35;7.18;;;0.90;;
9108;SDS011;4590;51.462;6.692;2023-03-14T12:18:12;4.22;;;1.00;;
9108;SDS011;4590;51.462;6.692;2023-03-14T12:20:50;6.28;;;1.10;;
9108;SDS011;4590;51.462;6.692;2023-03-14T12:23:19;4.05;;;1.00;;
9108;SDS011;4590;51.462;6.692;2023-03-14T12:25:45;3.75;;;1.00;;
9108;SDS011;4590;51.462;6.692;2023-03-14T12:28:20;6.40;;;1.53;;
9108;SDS011;4590;51.462;6.692;2023-03-14T12:30:55;5.70;;;1.20;;
9108;SDS011;4590;51.462;6.692;2023-03-14T12:33:21;5.20;;;1.40;;
9108;SDS011;4590;51.462;6.692;2023-03-14T12:35:59;6.40;;;1.42;;
9108;SDS011;4590;51.462;6.692;2023-03-14T12:41:14;7.78;;;1.80;;
9108;SDS011;4590;51.462;6.692;2023-03-14T12:43:45;6.38;;;1.50;;
9108;SDS011;4590;51.462;6.692;2023-03-14T12:46:26;10.40;;;2.40;;
9108;SDS011;4590;51.462;6.692;2023-03-14T12:51:47;8.57;;;1.73;;
9108;SDS011;4590;51.462;6.692;2023-03-14T12:59:38;7.97;;;2.38;;
9108;SDS011;4590;51.462;6.692;2023-03-14T13:02:14;6.28;;;1.52;;
9108;SDS011;4590;51.462;6.692;2023-03-14T13:04:50;8.70;;;1.50;;
9108;SDS011;4590;51.462;6.692;2023-03-14T13:10:02;8.93;;;1.58;;
9108;SDS011;4590;51.462;6.692;2023-03-14T13:12:34;13.27;;;1.88;;
9108;SDS011;4590;51.462;6.692;2023-03-14T14:14:08;6.82;;;1.38;;
9108;SDS011;4590;51.462;6.692;2023-03-14T14:45:09;6.50;;;1.10;;
9108;SDS011;4590;51.462;6.692;2023-03-14T14:47:48;7.85;;;1.33;;
9108;SDS011;4590;51.462;6.692;2023-03-14T14:50:26;6.63;;;1.77;;
9108;SDS011;4590;51.462;6.692;2023-03-14T14:52:55;2.90;;;1.10;;
9108;SDS011;4590;51.462;6.692;2023-03-14T15:54:34;1.92;;;0.98;;
9108;SDS011;4590;51.462;6.692;2023-03-14T16:44:27;6.43;;;1.50;;
9108;SDS011;4590;51.462;6.692;2023-03-14T16:46:52;5.28;;;1.20;;
9108;SDS011;4590;51.462;6.692;2023-03-14T16:54:30;3.60;;;0.95;;
9108;SDS011;4590;51.462;6.692;2023-03-14T16:56:56;5.55;;;1.10;;
9108;SDS011;4590;51.462;6.692;2023-03-14T16:59:23;4.93;;;1.30;;
9108;SDS011;4590;51.462;6.692;2023-03-14T17:19:52;5.10;;;1.17;;
9108;SDS011;4590;51.462;6.692;2023-03-14T17:22:17;5.73;;;1.00;;
9108;SDS011;4590;51.462;6.692;2023-03-14T17:24:43;6.03;;;1.10;;
9108;SDS011;4590;51.462;6.692;2023-03-14T17:27:08;6.50;;;1.27;;
9108;SDS011;4590;51.462;6.692;2023-03-14T17:29:34;3.27;;;0.87;;
9108;SDS011;4590;51.462;6.692;2023-03-14T17:31:59;3.13;;;0.80;;
9108;SDS011;4590;51.462;6.692;2023-03-14T17:34:25;4.33;;;1.53;;
9108;SDS011;4590;51.462;6.692;2023-03-14T17:41:54;4.70;;;1.70;;
9108;SDS011;4590;51.462;6.692;2023-03-14T17:44:20;4.10;;;1.20;;
9108;SDS011;4590;51.462;6.692;2023-03-14T17:49:21;3.67;;;1.30;;
9108;SDS011;4590;51.462;6.692;2023-03-14T17:51:47;8.20;;;1.43;;
9108;SDS011;4590;51.462;6.692;2023-03-14T17:54:12;3.97;;;1.40;;
9108;SDS011;4590;51.462;6.692;2023-03-14T18:04:24;4.95;;;1.50;;
9108;SDS011;4590;51.462;6.692;2023-03-14T18:19:46;6.63;;;2.20;;
9108;SDS011;4590;51.462;6.692;2023-03-14T18:24:47;4.75;;;1.50;;
9108;SDS011;4590;51.462;6.692;2023-03-14T18:58:27;4.93;;;1.95;;
9108;SDS011;4590;51.462;6.692;2023-03-14T19:01:08;5.97;;;2.58;;
9108;SDS011;4590;51.462;6.692;2023-03-14T19:08:46;6.97;;;4.03;;
9108;SDS011;4590;51.462;6.692;2023-03-14T19:26:42;10.25;;;4.25;;
9108;SDS011;4590;51.462;6.692;2023-03-14T19:31:36;9.05;;;4.85;;
9108;SDS011;4590;51.462;6.692;2023-03-14T19:34:02;9.13;;;3.50;;
9108;SDS011;4590;51.462;6.692;2023-03-14T20:32:48;6.43;;;1.20;;
9108;SDS011;4590;51.462;6.692;2023-03-14T20:35:14;9.88;;;1.67;;
9108;SDS011;4590;51.462;6.692;2023-03-14T20:40:20;5.72;;;1.60;;
9108;SDS011;4590;51.462;6.692;2023-03-14T20:42:47;9.88;;;1.85;;
9108;SDS011;4590;51.462;6.692;2023-03-14T20:45:16;5.22;;;1.70;;
9108;SDS011;4590;51.462;6.692;2023-03-14T20:47:41;9.70;;;1.52;;
9108;SDS011;4590;51.462;6.692;2023-03-14T20:50:08;7.00;;;1.70;;
9108;SDS011;4590;51.462;6.692;2023-03-14T20:52:34;8.38;;;2.00;;
9108;SDS011;4590;51.462;6.692;2023-03-14T20:55:00;10.30;;;2.25;;
9108;SDS011;4590;51.462;6.692;2023-03-14T20:57:26;5.37;;;1.53;;
9108;SDS011;4590;51.462;6.692;2023-03-14T20:59:52;4.25;;;2.08;;
9108;SDS011;4590;51.462;6.692;2023-03-14T21:02:17;5.77;;;1.80;;
9108;SDS011;4590;51.462;6.692;2023-03-14T21:04:43;7.57;;;1.67;;
9108;SDS011;4590;51.462;6.692;2023-03-14T21:07:08;4.57;;;1.47;;
9108;SDS011;4590;51.462;6.692;2023-03-14T21:09:36;6.07;;;1.60;;
9108;SDS011;4590;51.462;6.692;2023-03-14T21:14:38;7.70;;;2.22;;
9108;SDS011;4590;51.462;6.692;2023-03-14T21:19:38;7.25;;;2.40;;
9108;SDS011;4590;51.462;6.692;2023-03-14T21:22:05;6.50;;;2.67;;
9108;SDS011;4590;51.462;6.692;2023-03-14T21:24:30;8.17;;;2.80;;
9108;SDS011;4590;51.462;6.692;2023-03-14T21:26:58;6.90;;;2.67;;
9108;SDS011;4590;51.462;6.692;2023-03-14T21:29:25;6.85;;;2.47;;
9108;SDS011;4590;51.462;6.692;2023-03-14T21:55:07;10.00;;;2.08;;
9108;SDS011;4590;51.462;6.692;2023-03-14T21:57:35;5.30;;;2.25;;
9108;SDS011;4590;51.462;6.692;2023-03-14T22:10:21;8.57;;;2.42;;
9108;SDS011;4590;51.462;6.692;2023-03-14T22:12:47;8.33;;;2.43;;
9108;SDS011;4590;51.462;6.692;2023-03-14T22:41:04;6.47;;;2.00;;
9108;SDS011;4590;51.462;6.692;2023-03-14T22:46:05;8.65;;;2.28;;
9108;SDS011;4590;51.462;6.692;2023-03-14T22:53:41;7.10;;;2.30;;
9108;SDS011;4590;51.462;6.692;2023-03-14T22:56:07;8.13;;;2.27;;
9108;SDS011;4590;51.462;6.692;2023-03-14T23:01:08;11.05;;;2.78;;
